sensor_id;sensor_type;location;lat;lon;timestamp;temperature;humidity
4433;DHT22;2229;48.708;9.706;2023-05-14T00:00:13;12.50;99.90
4433;DHT22;2229;48.708;9.706;2023-05-14T00:02:41;12.50;99.90
4433;DHT22;2229;48.708;9.706;2023-05-14T00:05:08;12.50;99.90
4433;DHT22;2229;48.708;9.706;2023-05-14T00:07:37;12.50;99.90
4433;DHT22;2229;48.708;9.706;2023-05-14T00:10:05;12.50;99.90
4433;DHT22;2229;48.708;9.706;2023-05-14T00:12:33;12.50;99.90
4433;DHT22;2229;48.708;9.706;2023-05-14T00:15:00;12.50;99.90
4433;DHT22;2229;48.708;9.706;2023-05-14T00:17:27;12.50;99.90
4433;DHT22;2229;48.708;9.706;2023-05-14T00:19:55;12.40;99.90
4433;DHT22;2229;48.708;9.706;2023-05-14T00:22:24;12.50;99.90
4433;DHT22;2229;48.708;9.706;2023-05-14T00:24:53;12.50;99.90
4433;DHT22;2229;48.708;9.706;2023-05-14T00:27:21;12.40;99.90
4433;DHT22;2229;48.708;9.706;2023-05-14T00:29:48;12.40;99.90
4433;DHT22;2229;48.708;9.706;2023-05-14T00:32:15;12.40;99.90
4433;DHT22;2229;48.708;9.706;2023-05-14T00:34:42;12.40;99.90
4433;DHT22;2229;48.708;9.706;2023-05-14T00:37:10;12.40;99.90
4433;DHT22;2229;48.708;9.706;2023-05-14T00:39:37;12.40;99.90
4433;DHT22;2229;48.708;9.706;2023-05-14T00:42:06;12.40;99.90
4433;DHT22;2229;48.708;9.706;2023-05-14T00:44:33;12.40;99.90
4433;DHT22;2229;48.708;9.706;2023-05-14T00:47:00;12.40;99.90
4433;DHT22;2229;48.708;9.706;2023-05-14T00:49:28;12.40;99.90
4433;DHT22;2229;48.708;9.706;2023-05-14T00:51:55;12.40;99.90
4433;DHT22;2229;48.708;9.706;2023-05-14T00:54:24;12.30;99.90
4433;DHT22;2229;48.708;9.706;2023-05-14T00:56:52;12.30;99.90
4433;DHT22;2229;48.708;9.706;2023-05-14T00:59:21;12.30;99.90
4433;DHT22;2229;48.708;9.706;2023-05-14T01:01:48;12.30;99.90
4433;DHT22;2229;48.708;9.706;2023-05-14T01:04:16;12.30;99.90
4433;DHT22;2229;48.708;9.706;2023-05-14T01:07:02;12.30;99.90
4433;DHT22;2229;48.708;9.706;2023-05-14T01:09:35;12.30;99.90
4433;DHT22;2229;48.708;9.706;2023-05-14T01:12:08;12.20;99.90
4433;DHT22;2229;48.708;9.706;2023-05-14T01:14:45;12.20;99.90
4433;DHT22;2229;48.708;9.706;2023-05-14T01:17:16;12.20;99.90
4433;DHT22;2229;48.708;9.706;2023-05-14T01:19:46;12.20;99.90
4433;DHT22;2229;48.708;9.706;2023-05-14T01:22:16;12.20;99.90
4433;DHT22;2229;48.708;9.706;2023-05-14T01:24:44;12.20;99.90
4433;DHT22;2229;48.708;9.706;2023-05-14T01:27:16;12.20;99.90
4433;DHT22;2229;48.708;9.706;2023-05-14T01:29:48;12.20;99.90
4433;DHT22;2229;48.708;9.706;2023-05-14T01:32:17;12.30;99.90
4433;DHT22;2229;48.708;9.706;2023-05-14T01:34:49;12.20;99.90
4433;DHT22;2229;48.708;9.706;2023-05-14T01:37:19;12.20;99.90
4433;DHT22;2229;48.708;9.706;2023-05-14T01:39:48;12.20;99.90
4433;DHT22;2229;48.708;9.706;2023-05-14T01:42:16;12.20;99.90
4433;DHT22;2229;48.708;9.706;2023-05-14T01:44:44;12.20;99.90
4433;DHT22;2229;48.708;9.706;2023-05-14T01:47:11;12.20;99.90
4433;DHT22;2229;48.708;9.706;2023-05-14T01:49:39;12.20;99.90
4433;DHT22;2229;48.708;9.706;2023-05-14T01:52:06;12.20;99.90
4433;DHT22;2229;48.708;9.706;2023-05-14T01:54:35;12.10;99.90
4433;DHT22;2229;48.708;9.706;2023-05-14T01:57:02;12.10;99.90
4433;DHT22;2229;48.708;9.706;2023-05-14T01:59:30;12.10;99.90
4433;DHT22;2229;48.708;9.706;2023-05-14T02:01:57;12.10;99.90
4433;DHT22;2229;48.708;9.706;2023-05-14T02:04:24;12.10;99.90
4433;DHT22;2229;48.708;9.706;2023-05-14T02:06:51;12.10;99.90
4433;DHT22;2229;48.708;9.706;2023-05-14T02:09:19;12.10;99.90
4433;DHT22;2229;48.708;9.706;2023-05-14T02:11:47;12.00;99.90
4433;DHT22;2229;48.708;9.706;2023-05-14T02:14:14;12.00;99.90
4433;DHT22;2229;48.708;9.706;2023-05-14T02:16:41;12.00;99.90
4433;DHT22;2229;48.708;9.706;2023-05-14T02:19:08;12.00;99.90
4433;DHT22;2229;48.708;9.706;2023-05-14T02:21:36;12.00;99.90
4433;DHT22;2229;48.708;9.706;2023-05-14T02:24:04;12.00;99.90
4433;DHT22;2229;48.708;9.706;2023-05-14T02:26:31;12.00;99.90
4433;DHT22;2229;48.708;9.706;2023-05-14T02:29:00;12.00;99.90
4433;DHT22;2229;48.708;9.706;2023-05-14T02:31:27;12.00;99.90
4433;DHT22;2229;48.708;9.706;2023-05-14T02:33:54;12.00;99.90
4433;DHT22;2229;48.708;9.706;2023-05-14T02:36:21;12.00;99.90
4433;DHT22;2229;48.708;9.706;2023-05-14T02:38:49;12.00;99.90
4433;DHT22;2229;48.708;9.706;2023-05-14T02:41:16;12.10;99.90
4433;DHT22;2229;48.708;9.706;2023-05-14T02:43:43;12.10;99.90
4433;DHT22;2229;48.708;9.706;2023-05-14T02:46:12;12.10;99.90
4433;DHT22;2229;48.708;9.706;2023-05-14T02:48:39;12.10;99.90
4433;DHT22;2229;48.708;9.706;2023-05-14T02:51:06;12.00;99.90
4433;DHT22;2229;48.708;9.706;2023-05-14T02:53:34;12.10;99.90
4433;DHT22;2229;48.708;9.706;2023-05-14T02:56:01;12.10;99.90
4433;DHT22;2229;48.708;9.706;2023-05-14T02:58:28;12.10;99.90
4433;DHT22;2229;48.708;9.706;2023-05-14T03:00:55;12.10;99.90
4433;DHT22;2229;48.708;9.706;2023-05-14T03:03:24;12.10;99.90
4433;DHT22;2229;48.708;9.706;2023-05-14T03:05:51;12.10;99.90
4433;DHT22;2229;48.708;9.706;2023-05-14T03:08:19;12.10;99.90
4433;DHT22;2229;48.708;9.706;2023-05-14T03:10:46;12.10;99.90
4433;DHT22;2229;48.708;9.706;2023-05-14T03:13:13;12.10;99.90
4433;DHT22;2229;48.708;9.706;2023-05-14T03:15:42;12.10;99.90
4433;DHT22;2229;48.708;9.706;2023-05-14T03:18:10;12.10;99.90
4433;DHT22;2229;48.708;9.706;2023-05-14T03:20:40;12.10;99.90
4433;DHT22;2229;48.708;9.706;2023-05-14T03:23:07;12.10;99.90
4433;DHT22;2229;48.708;9.706;2023-05-14T03:25:34;12.20;99.90
4433;DHT22;2229;48.708;9.706;2023-05-14T03:28:02;12.10;99.90
4433;DHT22;2229;48.708;9.706;2023-05-14T03:30:29;12.10;99.90
4433;DHT22;2229;48.708;9.706;2023-05-14T03:32:56;12.10;99.90
4433;DHT22;2229;48.708;9.706;2023-05-14T03:35:23;12.10;99.90
4433;DHT22;2229;48.708;9.706;2023-05-14T03:37:52;12.10;99.90
4433;DHT22;2229;48.708;9.706;2023-05-14T03:40:20;12.10;99.90
4433;DHT22;2229;48.708;9.706;2023-05-14T03:42:47;12.10;99.90
4433;DHT22;2229;48.708;9.706;2023-05-14T03:45:15;12.10;99.90
4433;DHT22;2229;48.708;9.706;2023-05-14T03:47:42;12.10;99.90
4433;DHT22;2229;48.708;9.706;2023-05-14T03:50:09;12.10;99.90
4433;DHT22;2229;48.708;9.706;2023-05-14T03:52:36;12.10;99.90
4433;DHT22;2229;48.708;9.706;2023-05-14T03:55:06;12.20;99.90
4433;DHT22;2229;48.708;9.706;2023-05-14T03:57:35;12.20;99.90
4433;DHT22;2229;48.708;9.706;2023-05-14T04:00:02;12.20;99.90
4433;DHT22;2229;48.708;9.706;2023-05-14T04:02:42;12.20;99.90
4433;DHT22;2229;48.708;9.706;2023-05-14T04:05:10;12.20;99.90
4433;DHT22;2229;48.708;9.706;2023-05-14T04:07:38;12.20;99.90
4433;DHT22;2229;48.708;9.706;2023-05-14T04:10:08;12.20;99.90
4433;DHT22;2229;48.708;9.706;2023-05-14T04:12:35;12.10;99.90
4433;DHT22;2229;48.708;9.706;2023-05-14T04:15:03;12.20;99.90
4433;DHT22;2229;48.708;9.706;2023-05-14T04:17:31;12.10;99.90
4433;DHT22;2229;48.708;9.706;2023-05-14T04:19:58;12.10;99.90
4433;DHT22;2229;48.708;9.706;2023-05-14T04:22:25;12.10;99.90
4433;DHT22;2229;48.708;9.706;2023-05-14T04:24:53;12.10;99.90
4433;DHT22;2229;48.708;9.706;2023-05-14T04:27:21;12.10;99.90
4433;DHT22;2229;48.708;9.706;2023-05-14T04:29:48;12.10;99.90
4433;DHT22;2229;48.708;9.706;2023-05-14T04:32:16;12.10;99.90
4433;DHT22;2229;48.708;9.706;2023-05-14T04:34:43;12.00;99.90
4433;DHT22;2229;48.708;9.706;2023-05-14T04:37:11;12.00;99.90
4433;DHT22;2229;48.708;9.706;2023-05-14T04:39:39;12.00;99.90
4433;DHT22;2229;48.708;9.706;2023-05-14T04:42:07;12.00;99.90
4433;DHT22;2229;48.708;9.706;2023-05-14T04:44:36;12.00;99.90
4433;DHT22;2229;48.708;9.706;2023-05-14T04:47:03;12.00;99.90
4433;DHT22;2229;48.708;9.706;2023-05-14T04:49:31;12.00;99.90
4433;DHT22;2229;48.708;9.706;2023-05-14T04:51:59;12.00;99.90
4433;DHT22;2229;48.708;9.706;2023-05-14T04:54:28;12.00;99.90
4433;DHT22;2229;48.708;9.706;2023-05-14T04:56:55;12.00;99.90
4433;DHT22;2229;48.708;9.706;2023-05-14T04:59:22;12.10;99.90
4433;DHT22;2229;48.708;9.706;2023-05-14T05:01:52;12.10;99.90
4433;DHT22;2229;48.708;9.706;2023-05-14T05:04:19;12.10;99.90
4433;DHT22;2229;48.708;9.706;2023-05-14T05:06:48;12.10;99.90
4433;DHT22;2229;48.708;9.706;2023-05-14T05:09:16;12.10;99.90
4433;DHT22;2229;48.708;9.706;2023-05-14T05:11:43;12.10;99.90
4433;DHT22;2229;48.708;9.706;2023-05-14T05:14:11;12.10;99.90
4433;DHT22;2229;48.708;9.706;2023-05-14T05:16:38;12.10;99.90
4433;DHT22;2229;48.708;9.706;2023-05-14T05:19:07;12.10;99.90
4433;DHT22;2229;48.708;9.706;2023-05-14T05:21:34;12.10;99.90
4433;DHT22;2229;48.708;9.706;2023-05-14T05:24:04;12.10;99.90
4433;DHT22;2229;48.708;9.706;2023-05-14T05:26:31;12.20;99.90
4433;DHT22;2229;48.708;9.706;2023-05-14T05:29:01;12.20;99.90
4433;DHT22;2229;48.708;9.706;2023-05-14T05:31:29;12.20;99.90
4433;DHT22;2229;48.708;9.706;2023-05-14T05:33:58;12.20;99.90
4433;DHT22;2229;48.708;9.706;2023-05-14T05:36:26;12.20;99.90
4433;DHT22;2229;48.708;9.706;2023-05-14T05:38:54;12.20;99.90
4433;DHT22;2229;48.708;9.706;2023-05-14T05:41:21;12.30;99.90
4433;DHT22;2229;48.708;9.706;2023-05-14T05:43:48;12.30;99.90
4433;DHT22;2229;48.708;9.706;2023-05-14T05:46:16;12.30;99.90
4433;DHT22;2229;48.708;9.706;2023-05-14T05:48:43;12.30;99.90
4433;DHT22;2229;48.708;9.706;2023-05-14T05:51:10;12.30;99.90
4433;DHT22;2229;48.708;9.706;2023-05-14T05:53:39;12.40;99.90
4433;DHT22;2229;48.708;9.706;2023-05-14T05:56:06;12.40;99.90
4433;DHT22;2229;48.708;9.706;2023-05-14T05:58:33;12.40;99.90
4433;DHT22;2229;48.708;9.706;2023-05-14T06:01:01;12.50;99.90
4433;DHT22;2229;48.708;9.706;2023-05-14T06:03:29;12.50;99.90
4433;DHT22;2229;48.708;9.706;2023-05-14T06:05:56;12.60;99.90
4433;DHT22;2229;48.708;9.706;2023-05-14T06:08:23;12.60;99.90
4433;DHT22;2229;48.708;9.706;2023-05-14T06:10:52;12.70;99.90
4433;DHT22;2229;48.708;9.706;2023-05-14T06:13:19;12.70;99.90
4433;DHT22;2229;48.708;9.706;2023-05-14T06:15:46;12.70;99.90
4433;DHT22;2229;48.708;9.706;2023-05-14T06:18:13;12.80;99.90
4433;DHT22;2229;48.708;9.706;2023-05-14T06:20:40;12.90;99.90
4433;DHT22;2229;48.708;9.706;2023-05-14T06:23:07;12.90;99.90
4433;DHT22;2229;48.708;9.706;2023-05-14T06:25:37;13.00;99.90
4433;DHT22;2229;48.708;9.706;2023-05-14T06:28:05;13.00;99.90
4433;DHT22;2229;48.708;9.706;2023-05-14T06:30:32;13.10;99.90
4433;DHT22;2229;48.708;9.706;2023-05-14T06:32:59;13.10;99.90
4433;DHT22;2229;48.708;9.706;2023-05-14T06:35:26;13.20;99.90
4433;DHT22;2229;48.708;9.706;2023-05-14T06:37:54;13.20;99.90
4433;DHT22;2229;48.708;9.706;2023-05-14T06:40:21;13.30;99.90
4433;DHT22;2229;48.708;9.706;2023-05-14T06:42:48;13.40;99.90
4433;DHT22;2229;48.708;9.706;2023-05-14T06:45:17;13.50;99.90
4433;DHT22;2229;48.708;9.706;2023-05-14T06:47:44;13.50;99.90
4433;DHT22;2229;48.708;9.706;2023-05-14T06:50:11;13.60;99.90
4433;DHT22;2229;48.708;9.706;2023-05-14T06:52:39;13.70;99.90
4433;DHT22;2229;48.708;9.706;2023-05-14T06:55:08;13.80;99.90
4433;DHT22;2229;48.708;9.706;2023-05-14T06:57:35;13.90;99.90
4433;DHT22;2229;48.708;9.706;2023-05-14T07:00:03;13.90;99.90
4433;DHT22;2229;48.708;9.706;2023-05-14T07:02:33;14.00;99.90
4433;DHT22;2229;48.708;9.706;2023-05-14T07:05:00;14.00;99.90
4433;DHT22;2229;48.708;9.706;2023-05-14T07:07:27;14.00;99.90
4433;DHT22;2229;48.708;9.706;2023-05-14T07:09:55;14.10;99.90
4433;DHT22;2229;48.708;9.706;2023-05-14T07:12:23;14.10;99.90
4433;DHT22;2229;48.708;9.706;2023-05-14T07:14:50;14.10;99.90
4433;DHT22;2229;48.708;9.706;2023-05-14T07:17:18;14.20;99.90
4433;DHT22;2229;48.708;9.706;2023-05-14T07:19:46;14.30;99.90
4433;DHT22;2229;48.708;9.706;2023-05-14T07:22:13;14.30;99.90
4433;DHT22;2229;48.708;9.706;2023-05-14T07:24:41;14.40;99.90
4433;DHT22;2229;48.708;9.706;2023-05-14T07:27:08;14.50;99.90
4433;DHT22;2229;48.708;9.706;2023-05-14T07:29:37;14.50;99.90
4433;DHT22;2229;48.708;9.706;2023-05-14T07:32:04;14.60;99.90
4433;DHT22;2229;48.708;9.706;2023-05-14T07:34:32;14.70;99.90
4433;DHT22;2229;48.708;9.706;2023-05-14T07:37:01;14.90;99.90
4433;DHT22;2229;48.708;9.706;2023-05-14T07:39:29;15.10;99.90
4433;DHT22;2229;48.708;9.706;2023-05-14T07:41:56;15.20;99.90
4433;DHT22;2229;48.708;9.706;2023-05-14T07:44:23;15.40;99.90
4433;DHT22;2229;48.708;9.706;2023-05-14T07:46:50;15.60;99.90
4433;DHT22;2229;48.708;9.706;2023-05-14T07:49:18;15.70;99.90
4433;DHT22;2229;48.708;9.706;2023-05-14T07:51:45;15.90;99.90
4433;DHT22;2229;48.708;9.706;2023-05-14T07:54:14;16.10;99.90
4433;DHT22;2229;48.708;9.706;2023-05-14T07:56:41;16.20;99.90
4433;DHT22;2229;48.708;9.706;2023-05-14T07:59:09;16.30;99.90
4433;DHT22;2229;48.708;9.706;2023-05-14T08:01:36;16.30;99.90
4433;DHT22;2229;48.708;9.706;2023-05-14T08:04:03;16.30;99.90
4433;DHT22;2229;48.708;9.706;2023-05-14T08:06:31;16.30;99.90
4433;DHT22;2229;48.708;9.706;2023-05-14T08:08:59;16.20;99.90
4433;DHT22;2229;48.708;9.706;2023-05-14T08:11:27;16.10;99.90
4433;DHT22;2229;48.708;9.706;2023-05-14T08:13:54;16.00;99.90
4433;DHT22;2229;48.708;9.706;2023-05-14T08:16:22;16.00;99.90
4433;DHT22;2229;48.708;9.706;2023-05-14T08:18:51;15.90;99.90
4433;DHT22;2229;48.708;9.706;2023-05-14T08:21:18;15.80;99.90
4433;DHT22;2229;48.708;9.706;2023-05-14T08:23:45;15.70;99.90
4433;DHT22;2229;48.708;9.706;2023-05-14T08:26:12;15.60;99.90
4433;DHT22;2229;48.708;9.706;2023-05-14T08:28:41;15.50;99.90
4433;DHT22;2229;48.708;9.706;2023-05-14T08:31:08;15.40;99.90
4433;DHT22;2229;48.708;9.706;2023-05-14T08:33:35;15.30;99.90
4433;DHT22;2229;48.708;9.706;2023-05-14T08:36:03;15.40;99.90
4433;DHT22;2229;48.708;9.706;2023-05-14T08:38:30;15.30;99.90
4433;DHT22;2229;48.708;9.706;2023-05-14T08:40:58;15.40;99.90
4433;DHT22;2229;48.708;9.706;2023-05-14T08:43:33;15.40;99.90
4433;DHT22;2229;48.708;9.706;2023-05-14T08:46:05;15.40;99.90
4433;DHT22;2229;48.708;9.706;2023-05-14T08:48:33;15.50;99.90
4433;DHT22;2229;48.708;9.706;2023-05-14T08:51:02;15.50;99.90
4433;DHT22;2229;48.708;9.706;2023-05-14T08:53:30;15.60;99.90
4433;DHT22;2229;48.708;9.706;2023-05-14T08:55:58;15.60;99.90
4433;DHT22;2229;48.708;9.706;2023-05-14T08:58:26;15.60;99.90
4433;DHT22;2229;48.708;9.706;2023-05-14T09:00:55;15.60;99.90
4433;DHT22;2229;48.708;9.706;2023-05-14T09:03:24;15.60;99.90
4433;DHT22;2229;48.708;9.706;2023-05-14T09:05:51;15.80;99.90
4433;DHT22;2229;48.708;9.706;2023-05-14T09:08:19;15.80;99.90
4433;DHT22;2229;48.708;9.706;2023-05-14T09:10:47;15.90;99.90
4433;DHT22;2229;48.708;9.706;2023-05-14T09:13:14;15.90;99.90
4433;DHT22;2229;48.708;9.706;2023-05-14T09:15:41;15.90;99.90
4433;DHT22;2229;48.708;9.706;2023-05-14T09:18:09;15.90;99.90
4433;DHT22;2229;48.708;9.706;2023-05-14T09:20:38;15.90;99.90
4433;DHT22;2229;48.708;9.706;2023-05-14T09:23:06;15.90;99.90
4433;DHT22;2229;48.708;9.706;2023-05-14T09:25:33;15.90;99.90
4433;DHT22;2229;48.708;9.706;2023-05-14T09:28:05;16.00;99.90
4433;DHT22;2229;48.708;9.706;2023-05-14T09:30:35;16.10;99.90
4433;DHT22;2229;48.708;9.706;2023-05-14T09:33:02;16.10;99.90
4433;DHT22;2229;48.708;9.706;2023-05-14T09:35:32;16.20;99.90
4433;DHT22;2229;48.708;9.706;2023-05-14T09:38:01;16.30;99.90
4433;DHT22;2229;48.708;9.706;2023-05-14T09:40:28;16.40;99.90
4433;DHT22;2229;48.708;9.706;2023-05-14T09:42:55;16.40;99.90
4433;DHT22;2229;48.708;9.706;2023-05-14T09:45:22;16.50;99.90
4433;DHT22;2229;48.708;9.706;2023-05-14T09:47:50;16.50;99.90
4433;DHT22;2229;48.708;9.706;2023-05-14T09:50:18;16.50;99.90
4433;DHT22;2229;48.708;9.706;2023-05-14T09:52:45;16.50;99.90
4433;DHT22;2229;48.708;9.706;2023-05-14T09:55:14;16.50;99.90
4433;DHT22;2229;48.708;9.706;2023-05-14T09:57:42;16.50;99.90
4433;DHT22;2229;48.708;9.706;2023-05-14T10:00:10;16.50;99.90
4433;DHT22;2229;48.708;9.706;2023-05-14T10:02:38;16.50;99.90
4433;DHT22;2229;48.708;9.706;2023-05-14T10:05:07;16.60;99.90
4433;DHT22;2229;48.708;9.706;2023-05-14T10:07:38;16.70;99.90
4433;DHT22;2229;48.708;9.706;2023-05-14T10:10:09;16.80;99.90
4433;DHT22;2229;48.708;9.706;2023-05-14T10:12:39;16.90;99.90
4433;DHT22;2229;48.708;9.706;2023-05-14T10:15:13;17.10;99.90
4433;DHT22;2229;48.708;9.706;2023-05-14T10:17:47;17.30;99.90
4433;DHT22;2229;48.708;9.706;2023-05-14T10:20:14;17.50;99.60
4433;DHT22;2229;48.708;9.706;2023-05-14T10:22:42;17.80;98.70
4433;DHT22;2229;48.708;9.706;2023-05-14T10:25:10;18.30;99.00
4433;DHT22;2229;48.708;9.706;2023-05-14T10:27:39;19.00;98.90
4433;DHT22;2229;48.708;9.706;2023-05-14T10:30:10;19.80;96.60
4433;DHT22;2229;48.708;9.706;2023-05-14T10:32:39;20.30;94.60
4433;DHT22;2229;48.708;9.706;2023-05-14T10:35:16;20.60;92.10
4433;DHT22;2229;48.708;9.706;2023-05-14T10:37:45;20.70;90.70
4433;DHT22;2229;48.708;9.706;2023-05-14T10:40:13;20.80;90.50
4433;DHT22;2229;48.708;9.706;2023-05-14T10:42:42;20.90;90.50
4433;DHT22;2229;48.708;9.706;2023-05-14T10:45:11;20.90;89.90
4433;DHT22;2229;48.708;9.706;2023-05-14T10:47:40;21.00;87.50
4433;DHT22;2229;48.708;9.706;2023-05-14T10:50:10;21.00;86.80
4433;DHT22;2229;48.708;9.706;2023-05-14T10:52:40;21.20;86.80
4433;DHT22;2229;48.708;9.706;2023-05-14T10:55:11;21.30;85.10
4433;DHT22;2229;48.708;9.706;2023-05-14T10:57:39;21.40;83.80
4433;DHT22;2229;48.708;9.706;2023-05-14T11:00:12;21.50;82.80
4433;DHT22;2229;48.708;9.706;2023-05-14T11:02:40;21.50;81.50
4433;DHT22;2229;48.708;9.706;2023-05-14T11:05:09;21.40;81.30
4433;DHT22;2229;48.708;9.706;2023-05-14T11:07:39;21.30;81.70
4433;DHT22;2229;48.708;9.706;2023-05-14T11:10:09;21.20;82.60
4433;DHT22;2229;48.708;9.706;2023-05-14T11:12:37;21.00;81.60
4433;DHT22;2229;48.708;9.706;2023-05-14T11:15:06;20.80;81.40
4433;DHT22;2229;48.708;9.706;2023-05-14T11:17:36;20.70;81.70
4433;DHT22;2229;48.708;9.706;2023-05-14T11:20:04;20.60;81.70
4433;DHT22;2229;48.708;9.706;2023-05-14T11:22:32;20.50;81.90
4433;DHT22;2229;48.708;9.706;2023-05-14T11:24:59;20.60;82.50
4433;DHT22;2229;48.708;9.706;2023-05-14T11:27:27;20.90;82.50
4433;DHT22;2229;48.708;9.706;2023-05-14T11:29:55;21.30;81.80
4433;DHT22;2229;48.708;9.706;2023-05-14T11:32:23;21.70;81.30
4433;DHT22;2229;48.708;9.706;2023-05-14T11:34:51;21.80;79.80
4433;DHT22;2229;48.708;9.706;2023-05-14T11:37:18;21.90;79.20
4433;DHT22;2229;48.708;9.706;2023-05-14T11:39:47;22.00;78.70
4433;DHT22;2229;48.708;9.706;2023-05-14T11:42:14;21.90;78.00
4433;DHT22;2229;48.708;9.706;2023-05-14T11:44:44;21.80;77.30
4433;DHT22;2229;48.708;9.706;2023-05-14T11:47:11;21.60;77.10
4433;DHT22;2229;48.708;9.706;2023-05-14T11:49:38;21.60;77.60
4433;DHT22;2229;48.708;9.706;2023-05-14T11:52:09;21.70;78.20
4433;DHT22;2229;48.708;9.706;2023-05-14T11:54:39;21.90;77.80
4433;DHT22;2229;48.708;9.706;2023-05-14T11:57:08;22.20;77.00
4433;DHT22;2229;48.708;9.706;2023-05-14T11:59:35;22.40;76.70
4433;DHT22;2229;48.708;9.706;2023-05-14T12:02:04;22.60;76.40
4433;DHT22;2229;48.708;9.706;2023-05-14T12:04:31;22.60;75.30
4433;DHT22;2229;48.708;9.706;2023-05-14T12:06:59;22.60;74.60
4433;DHT22;2229;48.708;9.706;2023-05-14T12:09:27;22.40;74.50
4433;DHT22;2229;48.708;9.706;2023-05-14T12:11:55;22.20;74.10
4433;DHT22;2229;48.708;9.706;2023-05-14T12:14:23;21.90;73.10
4433;DHT22;2229;48.708;9.706;2023-05-14T12:16:50;21.60;74.60
4433;DHT22;2229;48.708;9.706;2023-05-14T12:19:18;21.50;74.70
4433;DHT22;2229;48.708;9.706;2023-05-14T12:21:48;21.50;74.90
4433;DHT22;2229;48.708;9.706;2023-05-14T12:24:18;21.40;74.50
4433;DHT22;2229;48.708;9.706;2023-05-14T12:26:48;21.50;75.40
4433;DHT22;2229;48.708;9.706;2023-05-14T12:29:17;21.50;75.00
4433;DHT22;2229;48.708;9.706;2023-05-14T12:31:47;21.50;74.60
4433;DHT22;2229;48.708;9.706;2023-05-14T12:34:16;21.60;74.50
4433;DHT22;2229;48.708;9.706;2023-05-14T12:36:43;21.60;74.60
4433;DHT22;2229;48.708;9.706;2023-05-14T12:39:11;21.80;75.40
4433;DHT22;2229;48.708;9.706;2023-05-14T12:41:38;22.00;74.40
4433;DHT22;2229;48.708;9.706;2023-05-14T12:44:07;22.30;73.50
4433;DHT22;2229;48.708;9.706;2023-05-14T12:46:34;22.40;72.50
4433;DHT22;2229;48.708;9.706;2023-05-14T12:49:02;22.40;72.80
4433;DHT22;2229;48.708;9.706;2023-05-14T12:51:32;22.40;73.10
4433;DHT22;2229;48.708;9.706;2023-05-14T12:53:59;22.30;73.10
4433;DHT22;2229;48.708;9.706;2023-05-14T12:56:27;22.20;72.40
4433;DHT22;2229;48.708;9.706;2023-05-14T12:58:56;22.00;72.40
4433;DHT22;2229;48.708;9.706;2023-05-14T13:01:25;22.00;72.90
4433;DHT22;2229;48.708;9.706;2023-05-14T13:03:52;21.90;72.40
4433;DHT22;2229;48.708;9.706;2023-05-14T13:06:20;21.80;72.00
4433;DHT22;2229;48.708;9.706;2023-05-14T13:08:47;21.70;72.20
4433;DHT22;2229;48.708;9.706;2023-05-14T13:11:14;21.60;72.40
4433;DHT22;2229;48.708;9.706;2023-05-14T13:13:42;21.40;71.60
4433;DHT22;2229;48.708;9.706;2023-05-14T13:16:09;21.30;71.80
4433;DHT22;2229;48.708;9.706;2023-05-14T13:18:42;21.30;72.70
4433;DHT22;2229;48.708;9.706;2023-05-14T13:21:10;21.40;73.30
4433;DHT22;2229;48.708;9.706;2023-05-14T13:23:37;21.40;73.10
4433;DHT22;2229;48.708;9.706;2023-05-14T13:26:04;21.40;72.90
4433;DHT22;2229;48.708;9.706;2023-05-14T13:28:31;21.40;72.70
4433;DHT22;2229;48.708;9.706;2023-05-14T13:31:04;21.40;72.80
4433;DHT22;2229;48.708;9.706;2023-05-14T13:33:33;21.60;72.80
4433;DHT22;2229;48.708;9.706;2023-05-14T13:36:03;21.70;72.30
4433;DHT22;2229;48.708;9.706;2023-05-14T13:38:31;21.80;72.30
4433;DHT22;2229;48.708;9.706;2023-05-14T13:40:58;21.80;71.60
4433;DHT22;2229;48.708;9.706;2023-05-14T13:43:28;21.80;71.00
4433;DHT22;2229;48.708;9.706;2023-05-14T13:45:55;21.60;70.40
4433;DHT22;2229;48.708;9.706;2023-05-14T13:48:23;21.40;69.80
4433;DHT22;2229;48.708;9.706;2023-05-14T13:50:50;21.00;69.30
4433;DHT22;2229;48.708;9.706;2023-05-14T13:53:21;20.70;69.80
4433;DHT22;2229;48.708;9.706;2023-05-14T13:55:48;20.50;70.70
4433;DHT22;2229;48.708;9.706;2023-05-14T13:58:21;20.30;71.00
4433;DHT22;2229;48.708;9.706;2023-05-14T14:00:49;20.10;71.20
4433;DHT22;2229;48.708;9.706;2023-05-14T14:03:17;20.00;71.70
4433;DHT22;2229;48.708;9.706;2023-05-14T14:05:44;19.90;71.30
4433;DHT22;2229;48.708;9.706;2023-05-14T14:08:11;19.80;71.10
4433;DHT22;2229;48.708;9.706;2023-05-14T14:10:40;19.80;71.80
4433;DHT22;2229;48.708;9.706;2023-05-14T14:13:08;19.80;72.10
4433;DHT22;2229;48.708;9.706;2023-05-14T14:15:36;19.70;72.50
4433;DHT22;2229;48.708;9.706;2023-05-14T14:18:03;19.60;72.00
4433;DHT22;2229;48.708;9.706;2023-05-14T14:20:31;19.50;72.30
4433;DHT22;2229;48.708;9.706;2023-05-14T14:22:58;19.40;72.80
4433;DHT22;2229;48.708;9.706;2023-05-14T14:25:26;19.40;72.90
4433;DHT22;2229;48.708;9.706;2023-05-14T14:27:54;19.30;73.20
4433;DHT22;2229;48.708;9.706;2023-05-14T14:30:22;19.30;73.30
4433;DHT22;2229;48.708;9.706;2023-05-14T14:32:49;19.20;73.40
4433;DHT22;2229;48.708;9.706;2023-05-14T14:35:17;19.20;73.40
4433;DHT22;2229;48.708;9.706;2023-05-14T14:37:45;19.10;73.10
4433;DHT22;2229;48.708;9.706;2023-05-14T14:40:16;19.00;72.50
4433;DHT22;2229;48.708;9.706;2023-05-14T14:42:43;18.90;73.00
4433;DHT22;2229;48.708;9.706;2023-05-14T14:45:12;18.90;73.10
4433;DHT22;2229;48.708;9.706;2023-05-14T14:47:43;18.90;72.90
4433;DHT22;2229;48.708;9.706;2023-05-14T14:50:11;19.00;72.10
4433;DHT22;2229;48.708;9.706;2023-05-14T14:52:39;19.10;71.70
4433;DHT22;2229;48.708;9.706;2023-05-14T14:55:08;19.20;72.00
4433;DHT22;2229;48.708;9.706;2023-05-14T14:57:36;19.40;72.40
4433;DHT22;2229;48.708;9.706;2023-05-14T15:00:03;19.50;72.40
4433;DHT22;2229;48.708;9.706;2023-05-14T15:02:33;19.60;72.40
4433;DHT22;2229;48.708;9.706;2023-05-14T15:05:04;19.80;72.00
4433;DHT22;2229;48.708;9.706;2023-05-14T15:07:31;19.90;71.60
4433;DHT22;2229;48.708;9.706;2023-05-14T15:09:58;19.90;71.10
4433;DHT22;2229;48.708;9.706;2023-05-14T15:12:26;20.00;70.20
4433;DHT22;2229;48.708;9.706;2023-05-14T15:14:53;20.00;69.80
4433;DHT22;2229;48.708;9.706;2023-05-14T15:17:21;20.00;70.00
4433;DHT22;2229;48.708;9.706;2023-05-14T15:19:50;20.00;69.50
4433;DHT22;2229;48.708;9.706;2023-05-14T15:22:17;20.00;69.70
4433;DHT22;2229;48.708;9.706;2023-05-14T15:24:45;19.90;69.60
4433;DHT22;2229;48.708;9.706;2023-05-14T15:27:12;19.90;69.80
4433;DHT22;2229;48.708;9.706;2023-05-14T15:29:39;19.80;70.00
4433;DHT22;2229;48.708;9.706;2023-05-14T15:32:07;19.80;69.70
4433;DHT22;2229;48.708;9.706;2023-05-14T15:34:34;19.90;69.70
4433;DHT22;2229;48.708;9.706;2023-05-14T15:37:03;19.80;69.20
4433;DHT22;2229;48.708;9.706;2023-05-14T15:39:30;19.80;69.70
4433;DHT22;2229;48.708;9.706;2023-05-14T15:41:58;19.80;69.90
4433;DHT22;2229;48.708;9.706;2023-05-14T15:44:25;19.80;69.80
4433;DHT22;2229;48.708;9.706;2023-05-14T15:46:52;19.80;69.70
4433;DHT22;2229;48.708;9.706;2023-05-14T15:49:19;19.80;70.00
4433;DHT22;2229;48.708;9.706;2023-05-14T15:51:48;19.80;70.90
4433;DHT22;2229;48.708;9.706;2023-05-14T15:54:16;19.80;70.80
4433;DHT22;2229;48.708;9.706;2023-05-14T15:56:44;19.80;70.40
4433;DHT22;2229;48.708;9.706;2023-05-14T15:59:11;19.70;70.30
4433;DHT22;2229;48.708;9.706;2023-05-14T16:01:39;19.70;70.60
4433;DHT22;2229;48.708;9.706;2023-05-14T16:04:07;19.50;70.20
4433;DHT22;2229;48.708;9.706;2023-05-14T16:06:34;19.40;70.20